메인 페이지
METAR-TAF:

METAR-TAF

공항 :

Richard Lloyd Jones Jr. Airport

털사, 오클라호마, 미국

위도: 36-02-33N, 경도: 095-59-22W, 고도: 194m

현재 날씨관측

예보는 2 시간 40분 전, 09:53시(UTC)에 발표되었습니다.
7kt
온도 16°C
습도 88%
기압 1015 hPa
시정: 16.1km
고도 1400ft 상공 흐림

METAR: KRVS 060953Z AUTO 17007KT 10SM OVC014 16/14 A2998 RMK AO2 SLP160 T01610139

시각: 07:33 (12:33 UTC)

예보

예보는 1 시간 2분 전, 11:31시(UTC)에 발표되었습니다.
예보 대상 시간: 06일 12시부터 07일 12시까지 (UTC)
6kt
시정: 10km
고도 1500ft 상공 구름 많음
06일 1500시부터 (UTC)
12kt, 순간 최대 풍속 20kt
시정: 10km
고도 2500ft 상공 구름 많음
06일 1900시부터 (UTC)
14kt, 순간 최대 풍속 22kt
시정: 10km
고도 4000ft 상공 구름 많음
07일 0100시부터 (UTC)
10kt
시정: 10km
고도 4000ft 상공 구름 보통
고도 25000ft 상공 구름 많음

TAF: KRVS 061131Z 0612/0712 18006KT P6SM BKN015 FM061500 19012G20KT P6SM BKN025 FM061900 19014G22KT P6SM BKN040 FM070100 18010KT P6SM SCT040 BKN250

4,000개 이상의 공항 관측 자료 및 예보 (METAR 및 TAF 보고).

지도상에서 검색 가능한 기상관측소가 노란 점과 빨간 점으로 표시되어 있습니다.

기상관측소 명을 보려면 표시 위로 마우스를 이동하세요.

날씨 관측과 예보를 보려면 클릭하세요.

지도 변경 : 확대하려면 엑스 표시가 있는 녹색 버튼, 축소하려면 빼기 표시가 있는 녹색 버튼, 다음 페이지의 지도를 보려면 녹색 화살표를 클릭하세요.


METAR-TAF: